Terminal Aerodrome Forecast
Issued by NWS

Home | Current Version | Previous Version | Text Only | Print | Product List | Glossary On
Versions: 1 2 3 4 5 6 7 8 9 10 11 12 13 14 15
000
FTUS41 KPBZ 311731
TAFDUJ
TAF
KDUJ 311731Z 3118/0118 25004KT 6SM -SHRA VCTS OVC080CB
      TEMPO 3119/3122 3SM TSRA OVC025CB
     FM010300 31003KT P6SM BKN015
     FM011300 35005KT P6SM BKN025
     FM011600 35006KT P6SM SCT035=

USA.gov is the U.S. government's official web portal to all federal, state and local government web resources and services.